地図

経路データ

SID SEASON NUMBER BASIN SUBBASIN NAME ISO_TIME NATURE LAT LON WMO_WIND WMO_PRES WMO_AGENCY TRACK_TYPE DIST2LAND LANDFALL IFLAG USA_AGENCY USA_ATCF_ID USA_LAT USA_LON USA_RECORD USA_STATUS USA_WIND USA_PRES USA_SSHS USA_R34_NE USA_R34_SE USA_R34_SW USA_R34_NW USA_R50_NE USA_R50_SE USA_R50_SW USA_R50_NW USA_R64_NE USA_R64_SE USA_R64_SW USA_R64_NW USA_POCI USA_ROCI USA_RMW USA_EYE TOKYO_LAT TOKYO_LON TOKYO_GRADE TOKYO_WIND TOKYO_PRES TOKYO_R50_DIR TOKYO_R50_LONG TOKYO_R50_SHORT TOKYO_R30_DIR TOKYO_R30_LONG TOKYO_R30_SHORT TOKYO_LAND CMA_LAT CMA_LON CMA_CAT CMA_WIND CMA_PRES HKO_LAT HKO_LON HKO_CAT HKO_WIND HKO_PRES NEWDELHI_LAT NEWDELHI_LON NEWDELHI_GRADE NEWDELHI_WIND NEWDELHI_PRES NEWDELHI_CI NEWDELHI_DP NEWDELHI_POCI REUNION_LAT REUNION_LON REUNION_TYPE REUNION_WIND REUNION_PRES REUNION_TNUM REUNION_CI REUNION_RMW REUNION_R34_NE REUNION_R34_SE REUNION_R34_SW REUNION_R34_NW REUNION_R50_NE REUNION_R50_SE REUNION_R50_SW REUNION_R50_NW REUNION_R64_NE REUNION_R64_SE REUNION_R64_SW REUNION_R64_NW BOM_LAT BOM_LON BOM_TYPE BOM_WIND BOM_PRES BOM_TNUM BOM_CI BOM_RMW BOM_R34_NE BOM_R34_SE BOM_R34_SW BOM_R34_NW BOM_R50_NE BOM_R50_SE BOM_R50_SW BOM_R50_NW BOM_R64_NE BOM_R64_SE BOM_R64_SW BOM_R64_NW BOM_ROCI BOM_POCI BOM_EYE BOM_POS_METHOD BOM_PRES_METHOD NADI_LAT NADI_LON NADI_CAT NADI_WIND NADI_PRES WELLINGTON_LAT WELLINGTON_LON WELLINGTON_WIND WELLINGTON_PRES DS824_LAT DS824_LON DS824_STAGE DS824_WIND DS824_PRES TD9636_LAT TD9636_LON TD9636_STAGE TD9636_WIND TD9636_PRES TD9635_LAT TD9635_LON TD9635_WIND TD9635_PRES TD9635_ROCI NEUMANN_LAT NEUMANN_LON NEUMANN_CLASS NEUMANN_WIND NEUMANN_PRES MLC_LAT MLC_LON MLC_CLASS MLC_WIND MLC_PRES USA_GUST BOM_GUST BOM_GUST_PER REUNION_GUST REUNION_GUST_PER USA_SEAHGT USA_SEARAD_NE USA_SEARAD_SE USA_SEARAD_SW USA_SEARAD_NW STORM_SPEED STORM_DIR
1956305N20285 1956 106 NA CS GRETA 1956-10-31 00:00:00 TS 20.0000 -74.7000 25 hurdat_atl main 10 0 O_____________ hurdat_atl AL081956 20.0000 -74.7000 TD 25 -1 4 351
1956305N20285 1956 106 NA NA GRETA 1956-10-31 03:00:00 TS 20.2175 -74.7424 main 0 0 P_____________ AL081956 20.2175 -74.7424 TD 25 -1 4 347
1956305N20285 1956 106 NA NA GRETA 1956-10-31 06:00:00 TS 20.4000 -74.8000 25 hurdat_atl main 0 0 O_____________ hurdat_atl AL081956 20.4000 -74.8000 TD 25 -1 4 338
1956305N20285 1956 106 NA NA GRETA 1956-10-31 09:00:00 TS 20.5475 -74.8852 main 0 0 P_____________ AL081956 20.5475 -74.8852 TD 25 -1 4 335
1956305N20285 1956 106 NA NA GRETA 1956-10-31 12:00:00 TS 20.8000 -75.0000 25 hurdat_atl main 22 22 O_____________ hurdat_atl AL081956 20.8000 -75.0000 TD 25 -1 8 339
1956305N20285 1956 106 NA NA GRETA 1956-10-31 15:00:00 TS 21.2976 -75.1869 main 53 53 P_____________ AL081956 21.2976 -75.1869 TD 27 -1 11 346
1956305N20285 1956 106 NA NA GRETA 1956-10-31 18:00:00 TS 21.9000 -75.3000 30 1003 hurdat_atl main 105 105 O_____________ hurdat_atl AL081956 21.9000 -75.3000 TD 30 1003 -1 12 358
1956305N20285 1956 106 NA NA GRETA 1956-10-31 21:00:00 TS 22.4423 -75.2324 main 161 161 P_____________ AL081956 22.4423 -75.2324 TD 30 -1 11 14
1956305N20285 1956 106 NA NA GRETA 1956-11-01 00:00:00 TS 23.0000 -75.0000 30 hurdat_atl main 232 232 O_____________ hurdat_atl AL081956 23.0000 -75.0000 TD 30 -1 12 25
1956305N20285 1956 106 NA NA GRETA 1956-11-01 03:00:00 TS 23.5699 -74.6669 main 297 294 P_____________ AL081956 23.5699 -74.6669 TD 32 -1 14 31
1956305N20285 1956 106 NA NA GRETA 1956-11-01 06:00:00 TS 24.2000 -74.2000 35 hurdat_atl main 350 350 O_____________ hurdat_atl AL081956 24.2000 -74.2000 TS 35 0 17 36
1956305N20285 1956 106 NA NA GRETA 1956-11-01 09:00:00 TS 24.9279 -73.6006 main 415 415 P_____________ AL081956 24.9279 -73.6006 TS 40 0 19 36
1956305N20285 1956 106 NA NA GRETA 1956-11-01 12:00:00 TS 25.7000 -73.0000 45 hurdat_atl main 491 491 O_____________ hurdat_atl AL081956 25.7000 -73.0000 TS 45 0 18 33
1956305N20285 1956 106 NA NA GRETA 1956-11-01 15:00:00 TS 26.4649 -72.5028 main 567 567 P_____________ AL081956 26.4649 -72.5028 TS 47 0 17 26
1956305N20285 1956 106 NA NA GRETA 1956-11-01 18:00:00 TS 27.2000 -72.2000 50 hurdat_atl main 624 624 O_____________ hurdat_atl AL081956 27.2000 -72.2000 TS 50 0 15 12
1956305N20285 1956 106 NA NA GRETA 1956-11-01 21:00:00 TS 27.9697 -72.1512 main 661 661 P_____________ AL081956 27.9697 -72.1512 TS 50 0 13 356
1956305N20285 1956 106 NA NA GRETA 1956-11-02 00:00:00 TS 28.5000 -72.3000 50 992 hurdat_atl main 680 662 O_____________ hurdat_atl AL081956 28.5000 -72.3000 TS 50 992 0 7 330
1956305N20285 1956 106 NA NA GRETA 1956-11-02 03:00:00 TS 28.5927 -72.5654 main 662 633 P_____________ AL081956 28.5927 -72.5654 TS 50 0 5 257
1956305N20285 1956 106 NA NA GRETA 1956-11-02 06:00:00 TS 28.4000 -72.8000 50 hurdat_atl main 633 615 O_____________ hurdat_atl AL081956 28.4000 -72.8000 TS 50 0 5 204
1956305N20285 1956 106 NA NA GRETA 1956-11-02 09:00:00 TS 28.1299 -72.8024 main 615 604 P_____________ AL081956 28.1299 -72.8024 TS 50 0 6 172
1956305N20285 1956 106 NA NA GRETA 1956-11-02 12:00:00 TS 27.8000 -72.7000 50 hurdat_atl main 607 600 O_____________ hurdat_atl AL081956 27.8000 -72.7000 TS 50 0 6 164
1956305N20285 1956 106 NA NA GRETA 1956-11-02 15:00:00 TS 27.5275 -72.6075 main 600 596 P_____________ AL081956 27.5275 -72.6075 TS 52 0 5 160
1956305N20285 1956 106 NA NA GRETA 1956-11-02 18:00:00 TS 27.3000 -72.5000 55 hurdat_atl main 600 596 O_____________ hurdat_atl AL081956 27.3000 -72.5000 TS 55 0 4 153
1956305N20285 1956 106 NA NA GRETA 1956-11-02 21:00:00 TS 27.1500 -72.3926 main 605 601 P_____________ AL081956 27.1500 -72.3926 TS 55 0 4 150
1956305N20285 1956 106 NA NA GRETA 1956-11-03 00:00:00 TS 27.0000 -72.3000 55 hurdat_atl main 606 598 O_____________ hurdat_atl AL081956 27.0000 -72.3000 TS 55 0 4 160
1956305N20285 1956 106 NA NA GRETA 1956-11-03 03:00:00 TS 26.7875 -72.2426 main 607 595 P_____________ AL081956 26.7875 -72.2426 TS 57 0 5 170
1956305N20285 1956 106 NA NA GRETA 1956-11-03 06:00:00 TS 26.5000 -72.2000 60 hurdat_atl main 595 564 O_____________ hurdat_atl AL081956 26.5000 -72.2000 TS 60 0 6 175
1956305N20285 1956 106 NA NA GRETA 1956-11-03 09:00:00 TS 26.1449 -72.1804 main 553 511 P_____________ AL081956 26.1449 -72.1804 TS 60 0 8 174
1956305N20285 1956 106 NA NA GRETA 1956-11-03 12:00:00 TS 25.7000 -72.1000 60 982 hurdat_atl main 511 458 O_____________ hurdat_atl AL081956 25.7000 -72.1000 TS 60 982 0 10 166
1956305N20285 1956 106 NA NA GRETA 1956-11-03 15:00:00 TS 25.1499 -71.9099 main 450 406 P_____________ AL081956 25.1499 -71.9099 TS 60 0 12 158
1956305N20285 1956 106 NA NA GRETA 1956-11-03 18:00:00 TS 24.6000 -71.6000 60 hurdat_atl main 406 377 O_____________ hurdat_atl AL081956 24.6000 -71.6000 TS 60 0 12 146
1956305N20285 1956 106 NA NA GRETA 1956-11-03 21:00:00 TS 24.1699 -71.1952 main 382 368 P_____________ AL081956 24.1699 -71.1952 TS 62 0 11 134
1956305N20285 1956 106 NA NA GRETA 1956-11-04 00:00:00 TS 23.8000 -70.7000 65 hurdat_atl main 374 370 O_____________ hurdat_atl AL081956 23.8000 -70.7000 HU 65 1 12 128
1956305N20285 1956 106 NA NA GRETA 1956-11-04 03:00:00 TS 23.4274 -70.1726 main 378 378 P_____________ AL081956 23.4274 -70.1726 HU 67 1 12 125
1956305N20285 1956 106 NA NA GRETA 1956-11-04 06:00:00 TS 23.1000 -69.6000 70 hurdat_atl main 383 371 O_____________ hurdat_atl AL081956 23.1000 -69.6000 HU 70 1 12 119
1956305N20285 1956 106 NA NA GRETA 1956-11-04 09:00:00 TS 22.8273 -69.0153 main 372 368 P_____________ AL081956 22.8273 -69.0153 HU 75 1 12 114
1956305N20285 1956 106 NA NA GRETA 1956-11-04 12:00:00 TS 22.6000 -68.4000 80 hurdat_atl main 374 369 O_____________ hurdat_atl AL081956 22.6000 -68.4000 HU 80 1 12 112
1956305N20285 1956 106 NA NA GRETA 1956-11-04 15:00:00 TS 22.3622 -67.7648 main 380 374 P_____________ AL081956 22.3622 -67.7648 HU 82 1 13 108
1956305N20285 1956 106 NA NA GRETA 1956-11-04 18:00:00 TS 22.2000 -67.1000 85 970 hurdat_atl main 396 396 O_____________ hurdat_atl AL081956 22.2000 -67.1000 HU 85 970 2 13 103
1956305N20285 1956 106 NA NA GRETA 1956-11-04 21:00:00 TS 22.0719 -66.4361 main 413 413 P_____________ AL081956 22.0719 -66.4361 HU 85 2 13 90
1956305N20285 1956 106 NA NA GRETA 1956-11-05 00:00:00 TS 22.2000 -65.7000 85 hurdat_atl main 424 424 O_____________ hurdat_atl AL081956 22.2000 -65.7000 HU 85 2 16 66
1956305N20285 1956 106 NA NA GRETA 1956-11-05 03:00:00 TS 22.7145 -64.8596 main 486 486 P_____________ AL081956 22.7145 -64.8596 HU 85 2 21 52
1956305N20285 1956 106 NA NA GRETA 1956-11-05 06:00:00 TS 23.5000 -63.9000 85 hurdat_atl main 596 596 O_____________ hurdat_atl AL081956 23.5000 -63.9000 HU 85 2 25 48
1956305N20285 1956 106 NA NA GRETA 1956-11-05 09:00:00 TS 24.3624 -62.8298 main 730 730 P_____________ AL081956 24.3624 -62.8298 HU 85 2 27 48
1956305N20285 1956 106 NA NA GRETA 1956-11-05 12:00:00 TS 25.3000 -61.7000 85 970 hurdat_atl main 869 869 O_____________ hurdat_atl AL081956 25.3000 -61.7000 HU 85 970 2 28 47
1956305N20285 1956 106 NA NA GRETA 1956-11-05 15:00:00 TS 26.2519 -60.5852 main 1021 1021 P_____________ AL081956 26.2519 -60.5852 HU 85 2 27 48
1956305N20285 1956 106 NA NA GRETA 1956-11-05 18:00:00 TS 27.1000 -59.5000 85 hurdat_atl main 1155 1155 O_____________ hurdat_atl AL081956 27.1000 -59.5000 HU 85 2 24 53
1956305N20285 1956 106 NA NA GRETA 1956-11-05 21:00:00 TS 27.7018 -58.4602 main 1267 1267 P_____________ AL081956 27.7018 -58.4602 HU 85 2 21 58
1956305N20285 1956 106 NA NA GRETA 1956-11-06 00:00:00 TS 28.2000 -57.5000 85 hurdat_atl main 1371 1371 O_____________ hurdat_atl AL081956 28.2000 -57.5000 HU 85 2 19 56
1956305N20285 1956 106 NA NA GRETA 1956-11-06 03:00:00 TS 28.7472 -56.7073 main 1464 1464 P_____________ AL081956 28.7472 -56.7073 HU 85 2 19 54
1956305N20285 1956 106 NA NA GRETA 1956-11-06 06:00:00 TS 29.3000 -55.8000 85 hurdat_atl main 1571 1571 O_____________ hurdat_atl AL081956 29.3000 -55.8000 HU 85 2 22 60
1956305N20285 1956 106 NA NA GRETA 1956-11-06 09:00:00 TS 29.8583 -54.4825 main 1706 1706 P_____________ AL081956 29.8583 -54.4825 HU 85 2 27 66
1956305N20285 1956 106 NA NA GRETA 1956-11-06 12:00:00 ET 30.4000 -53.0000 85 hurdat_atl main 1792 1752 O_____________ hurdat_atl AL081956 30.4000 -53.0000 EX 85 -4 27 67
1956305N20285 1956 106 NA NA GRETA 1956-11-06 15:00:00 ET 30.8975 -51.6273 main 1753 1710 P_____________ AL081956 30.8975 -51.6273 EX 80 -4 26 67
1956305N20285 1956 106 NA NA GRETA 1956-11-06 18:00:00 ET 31.4000 -50.2000 75 hurdat_atl main 1711 1676 O_____________ hurdat_atl AL081956 31.4000 -50.2000 EX 75 -4 27 67
1956305N20285 1956 106 NA NA GRETA 1956-11-06 21:00:00 ET 31.9281 -48.7601 main 1678 1652 P_____________ AL081956 31.9281 -48.7601 EX 70 -4 29 68
1956305N20285 1956 106 NA NA GRETA 1956-11-07 00:00:00 ET 32.5000 -47.0000 65 hurdat_atl main 1655 1649 O_____________ hurdat_atl AL081956 32.5000 -47.0000 EX 65 -4 36 71
1956305N20285 1956 106 NA NA GRETA 1956-11-07 03:00:00 ET 33.1081 -44.6797 main 1665 1665 P_____________ AL081956 33.1081 -44.6797 EX 60 -4 44 74
1956305N20285 1956 106 NA NA GRETA 1956-11-07 06:00:00 ET 33.7000 -42.0000 55 hurdat_atl main 1717 O_____________ hurdat_atl AL081956 33.7000 -42.0000 EX 55 -4 46 75

IBTrACS Databaseについて

本データベースは、米国NOAAが公開する1842年以降の世界の熱帯低気圧のベストトラックデータアーカイブInternational Best Track Archive for Climate Stewardship (IBTrACS)を、ウェブで閲覧しやすい形式に変換したものです。

最終更新日:2021-10-21